Date,TemperatureHighF,TemperatureAvgF,TemperatureLowF,DewpointHighF,DewpointAvgF,DewpointLowF,HumidityHigh,HumidityAvg,HumidityLow,PressureMaxIn,PressureMinIn,WindSpeedMaxMPH,WindSpeedAvgMPH,GustSpeedMaxMPH,PrecipitationSumIn
2013-1-1,14,10,3,7,4,-1,87,77,67,30.17,30.07,7,4,13,0.00
2013-1-2,26,20,8,22,13,2,85,74,58,30.09,29.99,9,3,16,0.00
2013-1-3,26,22,14,22,18,10,87,84,81,30.16,29.98,11,6,19,0.00
2013-1-4,29,22,10,20,16,5,87,78,69,30.13,30.01,13,8,27,0.00
2013-1-5,35,29,16,33,26,13,96,87,76,30.16,29.82,11,4,21,0.09
2013-1-6,34,26,16,32,23,14,93,86,77,30.23,29.81,12,6,22,0.09
2013-1-7,38,28,13,27,21,10,93,78,63,30.23,29.98,12,5,23,0.00
2013-1-8,41,36,23,32,30,21,95,79,66,30.07,29.90,10,4,24,0.05
2013-1-9,41,36,29,33,27,23,83,71,59,30.40,29.87,18,8,32,0.01
2013-1-10,41,32,22,35,28,18,97,86,73,30.45,29.85,3,1,9,0.46
2013-1-11,37,36,36,36,36,35,98,97,97,29.85,29.77,1,0,9,0.49
2013-1-12,38,33,30,32,26,23,79,74,71,29.92,29.80,16,9,27,0.01
2013-1-13,19,17,13,14,11,6,80,76,72,30.13,29.92,13,7,20,0.00
2013-1-14,24,16,8,11,8,3,82,72,54,30.37,30.13,9,3,15,0.00
2013-1-15,30,22,10,18,14,6,89,73,55,30.35,30.03,6,3,15,0.00
2013-1-16,34,28,16,30,22,9,87,78,61,30.03,29.70,16,7,26,0.00
2013-1-17,29,21,13,19,10,4,83,61,48,30.32,29.99,13,6,21,0.00
2013-1-18,41,30,10,33,23,7,90,77,67,30.35,29.77,17,7,36,0.02
2013-1-19,44,38,20,36,30,7,83,71,42,29.84,29.60,327,10,327,0.01
2013-1-20,19,12,8,9,1,-3,71,62,54,30.22,29.84,21,7,33,0.01
2013-1-21,10,9,9,2,1,1,70,69,68,30.10,30.09,3,2,4,0.00
2013-1-22,6,5,4,-4,-5,-6,64,63,61,30.25,30.22,9,8,15,0.00
2013-1-23,17,14,7,13,8,-2,88,78,64,30.29,30.01,14,8,25,0.00
2013-1-24,18,12,2,10,3,-4,76,67,54,30.57,30.30,10,2,17,0.00
2013-1-25,25,20,16,18,14,6,85,76,60,30.30,29.87,12,6,19,0.00
2013-1-26,26,20,10,15,11,6,83,68,53,30.32,30.11,8,2,13,0.00
2013-1-27,33,28,23,32,24,15,97,85,70,30.29,29.83,4,1,12,0.00
2013-1-28,36,34,33,35,33,32,98,97,97,29.83,29.76,2,0,6,0.00
2013-1-29,59,50,37,57,49,36,99,97,93,29.54,29.41,12,5,23,0.87
2013-1-30,37,26,16,36,24,12,98,92,85,29.51,29.21,14,8,25,0.45
2013-1-31,16,10,3,12,4,-3,85,75,70,30.04,29.51,14,10,26,0.01
2013-2-1,7,4,3,4,-1,-5,88,78,70,30.18,30.04,9,5,16,0.00
2013-2-2,11,7,0,7,2,-3,90,79,68,30.07,29.96,8,3,13,0.00
2013-2-3,19,13,2,12,8,-1,89,79,65,29.97,29.88,13,5,21,0.00
2013-2-4,19,14,7,14,9,2,91,81,69,29.96,29.85,8,2,12,0.00
2013-2-5,27,20,0,23,16,-3,91,85,77,30.02,29.72,11,5,18,0.00
2013-2-6,33,26,9,30,21,7,92,80,68,30.16,30.02,7,2,14,0.13
2013-2-7,34,32,22,33,30,21,97,95,88,30.05,29.84,9,1,15,0.10
2013-2-8,23,22,21,21,20,19,94,90,88,30.27,29.96,8,6,15,0.07
2013-2-9,28,25,18,25,23,16,95,91,87,30.27,30.03,10,3,16,0.00
2013-2-10,44,34,18,43,33,17,98,96,84,30.03,29.37,11,3,24,0.51
2013-2-11,41,31,26,36,26,21,87,82,77,29.92,29.38,17,11,32,0.28
2013-2-12,27,24,20,22,20,17,92,82,73,30.02,29.82,11,5,20,0.00
2013-2-13,39,32,20,31,27,18,94,82,72,29.82,29.64,8,4,14,0.00
2013-2-14,36,33,29,34,28,22,95,83,73,29.92,29.55,15,6,24,0.01
2013-2-15,28,22,13,26,12,5,91,68,53,30.12,29.92,12,6,19,0.01
2013-2-16,13,11,8,6,4,3,80,75,71,30.11,30.08,8,5,15,0.00
2013-2-17,26,22,18,15,9,3,74,59,45,30.13,29.91,7,2,12,0.00
2013-2-18,47,37,24,42,31,15,97,81,68,29.91,29.37,11,5,22,0.38
2013-2-19,31,14,8,30,9,1,96,82,75,30.08,29.44,17,11,29,0.38
2013-2-20,19,13,6,11,7,0,87,76,68,30.31,30.08,11,5,17,0.00
2013-2-21,26,21,11,24,18,7,92,87,79,30.35,30.01,6,2,13,0.00
2013-2-22,31,28,24,29,26,22,94,91,87,30.01,29.72,7,3,15,0.05
2013-2-23,28,25,21,25,20,17,91,82,74,29.87,29.78,9,6,17,0.03
2013-2-24,36,28,19,26,21,16,92,78,62,30.08,29.87,7,3,12,0.20
2013-2-25,41,30,15,28,24,13,95,78,58,30.11,29.98,5,1,9,0.01
2013-2-26,34,32,29,31,29,26,96,88,76,29.98,29.54,6,2,20,0.01
2013-2-27,34,32,31,32,30,29,96,94,90,29.69,29.53,10,3,16,0.04
2013-2-28,34,30,24,30,26,20,94,85,80,30.06,29.69,10,5,22,0.03
2013-3-1,24,24,22,20,19,16,86,83,78,30.17,30.03,11,6,18,0.00
2013-3-2,24,20,11,16,14,8,88,78,70,30.16,30.10,9,4,16,0.00
2013-3-3,28,18,6,14,8,2,92,67,41,30.10,30.02,8,2,13,0.01
2013-3-4,35,24,5,25,18,2,88,78,63,30.07,29.98,3,1,9,0.13
2013-3-5,31,28,26,28,25,-100,95,89,79,29.99,29.82,9,3,16,0.05
2013-3-6,32,30,26,27,26,23,91,85,80,30.24,29.99,10,6,17,0.10
2013-3-7,34,28,18,25,21,16,94,76,61,30.37,30.23,6,3,11,0.16
2013-3-8,41,30,13,30,24,11,95,82,61,30.41,30.24,8,1,14,0.01
2013-3-9,41,35,27,34,31,24,94,86,73,30.24,29.77,6,1,16,0.11
2013-3-10,43,39,35,42,38,33,99,98,93,29.78,29.57,10,1,24,0.53
2013-3-11,39,34,31,39,33,27,99,97,90,29.68,29.48,11,4,17,0.31
2013-3-12,33,29,25,28,24,21,93,84,67,29.93,29.68,11,7,20,0.02
2013-3-13,30,26,20,21,13,9,86,61,42,30.23,29.93,15,8,23,0.01
2013-3-14,35,28,19,28,20,9,93,70,52,30.24,30.01,7,3,12,0.00
2013-3-15,36,32,28,34,30,27,95,91,84,30.01,29.75,5,2,9,0.06
2013-3-16,31,28,24,28,23,19,92,81,69,30.07,29.74,9,4,14,0.01
2013-3-17,32,27,20,23,18,13,84,71,60,30.19,29.96,7,2,14,0.00
2013-3-18,34,30,27,32,28,23,93,89,83,29.97,29.52,10,2,16,0.18
2013-3-19,29,24,16,14,12,9,75,60,47,29.96,29.78,18,12,31,0.01
2013-3-20,20,15,11,11,5,1,69,64,59,29.99,29.96,16,10,24,0.00
2013-3-22,33,28,19,18,16,14,84,64,47,30.02,29.95,6,2,10,0.00
2013-3-23,39,29,17,22,18,14,90,68,46,30.09,30.01,4,1,9,0.00
2013-3-24,35,35,35,29,29,29,79,78,77,29.80,29.80,3,2,8,0.00
2013-3-25,33,31,28,27,26,24,86,81,77,29.86,29.81,10,8,17,0.00
2013-3-26,38,36,34,29,27,25,71,69,67,30.19,30.13,7,4,13,0.00
2013-3-27,39,35,28,27,23,20,76,61,48,30.25,30.19,8,4,15,0.00
2013-3-28,44,36,28,25,22,20,76,57,42,30.29,30.23,8,3,15,0.00
2013-3-29,47,37,25,26,22,20,83,58,36,30.26,30.19,7,2,12,0.00
2013-3-30,54,43,25,42,32,-100,90,69,50,30.19,29.78,9,3,22,0.01
2013-3-31,50,42,32,42,35,22,95,78,57,29.84,29.65,17,8,28,0.01
2013-4-1,35,31,27,22,16,12,71,55,43,30.13,29.84,13,7,24,0.00
2013-4-2,39,31,24,16,15,13,69,51,34,30.26,30.12,11,4,20,0.00
2013-4-3,45,34,26,22,17,9,71,51,27,30.41,30.24,8,2,13,0.00
2013-4-4,57,44,27,36,26,11,70,50,39,30.24,29.91,12,6,22,0.00
2013-4-5,47,39,33,31,27,21,80,61,48,30.20,29.98,7,2,11,0.00
2013-4-6,63,50,34,50,37,22,90,63,44,30.11,29.51,15,5,27,0.11
2013-4-7,53,45,34,50,37,31,92,76,54,29.94,29.51,15,5,27,0.09
2013-4-8,51,42,34,46,40,31,97,91,83,29.95,29.54,10,2,16,0.01
2013-4-9,40,39,38,39,38,37,98,98,96,29.98,29.84,6,1,10,0.39
2013-4-10,38,37,36,37,36,35,97,96,96,29.99,29.84,4,2,19,0.29
2013-4-11,38,37,36,37,36,35,98,97,97,29.89,29.54,4,2,13,0.53
2013-4-12,41,37,35,38,35,30,98,93,83,29.75,29.49,10,4,18,0.14
2013-4-13,38,36,31,31,29,26,87,76,63,29.95,29.74,13,6,20,0.02
2013-4-14,47,38,31,41,33,-100,95,86,72,29.97,29.65,7,1,14,0.08
2013-4-15,62,51,40,52,44,37,96,79,48,29.93,29.72,15,7,26,0.48
2013-4-16,53,44,37,40,36,33,95,74,51,30.26,29.91,11,5,18,0.33
2013-4-17,43,41,38,42,38,33,97,89,72,30.28,29.82,5,1,13,0.69
2013-4-18,53,47,39,53,46,35,99,97,85,29.83,29.33,20,3,34,0.63
2013-4-19,39,35,31,35,29,24,85,79,66,29.84,29.35,19,10,33,0.07
2013-4-20,43,34,27,25,20,15,83,58,34,30.37,29.84,13,6,23,0.01
2013-4-21,50,40,26,32,28,24,93,64,42,30.48,30.25,8,1,15,0.00
2013-4-22,67,54,40,44,36,31,72,53,35,30.25,30.00,8,3,18,0.00
2013-4-23,53,43,36,49,38,33,95,86,63,30.00,29.87,11,5,19,0.39
2013-4-24,51,43,35,33,28,22,82,57,32,30.00,29.90,11,6,20,0.02
2013-4-25,50,44,37,37,32,27,93,62,43,30.26,29.94,13,6,27,0.01
2013-4-26,67,54,32,48,39,28,88,59,44,30.26,30.12,14,6,29,0.01
2013-4-27,69,58,49,50,45,41,88,64,42,30.22,29.98,10,3,16,0.00
2013-4-28,69,58,48,52,47,41,93,67,47,29.98,29.77,5,1,11,0.00
2013-4-29,71,60,45,59,52,44,96,78,53,29.85,29.72,9,2,18,0.03
2013-4-30,86,74,62,62,57,51,87,58,31,29.87,29.70,16,8,30,0.02
2013-5-1,83,76,66,59,56,47,73,51,29,30.05,29.88,11,5,18,0.00
2013-5-2,57,50,42,50,44,40,93,83,60,30.22,30.15,8,4,17,0.30
2013-5-3,48,45,41,46,44,40,96,95,91,30.05,29.97,2,1,9,0.58
2013-5-4,71,59,46,52,48,44,95,70,47,30.02,29.94,4,1,11,0.04
2013-5-5,73,60,45,50,45,39,89,59,36,30.03,29.97,4,1,10,0.00
2013-5-6,74,62,46,47,40,33,76,46,25,30.04,29.96,5,1,10,0.00
2013-5-7,77,65,48,51,43,36,75,48,27,30.04,29.96,4,1,8,0.00
2013-5-8,79,63,45,52,46,43,93,58,36,30.02,29.93,5,1,10,0.00
2013-5-9,69,57,44,60,50,42,96,81,58,29.95,29.86,4,1,16,0.30
2013-5-10,48,44,39,45,40,-100,97,93,87,29.94,29.82,10,4,17,0.74
2013-5-11,52,44,34,49,35,-100,98,74,43,29.98,29.75,18,7,32,0.01
2013-5-12,52,44,37,32,28,25,81,55,36,30.06,29.98,15,7,24,0.01
2013-5-13,61,47,31,38,32,27,96,60,29,30.14,29.97,10,2,16,0.00
2013-5-14,83,76,68,60,56,52,68,50,36,29.74,29.54,14,4,24,0.00
2013-5-15,77,74,67,61,52,43,62,47,32,29.81,29.54,10,7,18,0.00
2013-5-16,80,59,54,52,11,-100,52,41,34,29.96,29.87,7,2,10,0.00
2013-5-17,62,55,48,52,40,-100,95,70,47,30.08,29.96,3,1,13,0.00
2013-5-18,79,65,51,65,56,45,91,73,59,30.06,29.93,3,0,9,0.00
2013-5-19,84,72,54,69,63,53,96,76,58,29.94,29.67,9,1,21,0.00
2013-5-20,83,75,67,65,61,58,86,65,43,29.74,29.68,13,5,23,0.00
2013-5-21,77,73,67,66,64,62,86,75,67,29.66,29.57,9,7,19,0.13
2013-5-22,67,64,59,65,62,58,97,94,90,29.64,29.60,3,1,7,0.37
2013-5-23,56,48,39,48,43,35,93,82,71,30.28,30.01,10,4,23,0.53
2013-5-24,62,48,33,46,37,32,96,69,43,30.42,30.28,6,1,11,0.01
2013-5-25,61,51,40,43,38,34,94,63,43,30.38,30.27,2,0,5,0.00
2013-5-26,68,53,37,47,41,35,91,66,43,30.28,30.21,3,1,11,0.00
2013-5-27,53,52,52,52,51,51,97,97,97,30.02,29.95,2,1,10,0.00